createdAt,value
2023-07-24T00:02:18.623Z,96082.41
2023-07-24T00:04:45.458Z,96048.25
2023-07-24T00:07:12.168Z,96076.47
2023-07-24T00:09:38.853Z,96014.53
2023-07-24T00:12:05.946Z,96048.25
2023-07-24T00:14:32.621Z,96082.41
2023-07-24T00:16:59.330Z,96025.00
2023-07-24T00:19:25.990Z,95956.22
2023-07-24T00:21:52.747Z,96032.47
2023-07-24T00:24:19.580Z,96041.19
2023-07-24T00:26:46.229Z,96020.78
2023-07-24T00:29:13.006Z,96071.19
2023-07-24T00:31:39.674Z,96012.22
2023-07-24T00:34:06.323Z,96031.72
2023-07-24T00:36:33.115Z,96080.56
2023-07-24T00:38:59.900Z,96035.91
2023-07-24T00:41:26.570Z,95993.63
2023-07-24T00:43:53.219Z,96077.94
2023-07-24T00:46:19.908Z,96075.31
2023-07-24T00:48:46.530Z,95990.44
2023-07-24T00:51:13.234Z,96117.03
2023-07-24T00:53:40.107Z,96099.91
2023-07-24T00:56:06.720Z,96033.97
2023-07-24T00:58:34.398Z,96038.69
2023-07-24T01:01:01.196Z,96098.59
2023-07-24T01:03:35.448Z,96127.84
2023-07-24T01:06:05.266Z,96051.22
2023-07-24T01:08:31.955Z,95989.97
2023-07-24T01:11:00.620Z,96041.47
2023-07-24T01:13:27.278Z,96122.88
2023-07-24T01:16:04.278Z,96016.09
2023-07-24T01:18:31.450Z,96072.63
2023-07-24T01:20:58.571Z,96046.75
2023-07-24T01:23:44.068Z,96122.34
2023-07-24T01:26:10.751Z,96090.94
2023-07-24T01:28:37.512Z,96082.88
2023-07-24T01:31:04.351Z,96058.22
2023-07-24T01:33:32.886Z,96070.19
2023-07-24T01:36:00.328Z,96122.94
2023-07-24T01:38:26.975Z,96082.53
2023-07-24T01:40:56.666Z,95964.22
2023-07-24T01:43:23.398Z,96001.22
2023-07-24T01:45:50.292Z,96093.97
2023-07-24T01:48:17.332Z,96052.22
2023-07-24T01:50:44.048Z,95976.34
2023-07-24T01:53:11.100Z,96082.19
2023-07-24T01:55:37.773Z,96048.75
2023-07-24T01:58:04.439Z,96065.94
2023-07-24T02:00:31.080Z,95967.81
2023-07-24T02:02:57.892Z,96093.34
2023-07-24T02:05:24.656Z,96028.28
2023-07-24T02:07:51.370Z,96033.13
2023-07-24T02:10:18.097Z,96090.47
2023-07-24T02:12:46.052Z,96079.03
2023-07-24T02:15:12.709Z,95835.81
2023-07-24T02:17:40.124Z,96023.94
2023-07-24T02:20:07.361Z,96011.00
2023-07-24T02:22:34.047Z,96002.31
2023-07-24T02:25:00.926Z,95996.69
2023-07-24T02:27:28.840Z,96007.00
2023-07-24T02:29:58.291Z,96000.47
2023-07-24T02:32:24.985Z,96086.63
2023-07-24T02:34:52.151Z,96045.03
2023-07-24T02:37:19.024Z,96034.88
2023-07-24T02:39:45.969Z,96036.31
2023-07-24T02:42:12.722Z,96023.94
2023-07-24T02:44:39.421Z,96073.13
2023-07-24T02:47:06.140Z,95889.34
2023-07-24T02:49:33.087Z,96013.03
2023-07-24T02:51:59.750Z,96045.94
2023-07-24T02:54:27.469Z,96071.03
2023-07-24T02:56:54.244Z,96084.34
2023-07-24T02:59:20.940Z,96021.66
2023-07-24T03:01:47.637Z,96026.31
2023-07-24T03:04:14.330Z,95929.06
2023-07-24T03:06:41.402Z,96038.81
2023-07-24T03:09:08.225Z,95934.56
2023-07-24T03:11:34.885Z,96026.13
2023-07-24T03:14:01.596Z,96075.84
2023-07-24T03:16:28.568Z,96026.69
2023-07-24T03:18:55.536Z,96059.34
2023-07-24T03:21:22.200Z,95989.22
2023-07-24T03:23:48.832Z,96060.47
2023-07-24T03:26:15.566Z,96070.00
2023-07-24T03:28:42.375Z,95987.22
2023-07-24T03:31:09.176Z,95960.03
2023-07-24T03:33:36.242Z,96009.66
2023-07-24T03:36:02.887Z,96053.66
2023-07-24T03:38:29.563Z,96039.00
2023-07-24T03:40:56.255Z,96024.81
2023-07-24T03:43:23.142Z,96003.16
2023-07-24T03:45:49.855Z,96103.22
2023-07-24T03:48:16.520Z,96114.00
2023-07-24T03:50:43.169Z,96089.78
2023-07-24T03:53:09.915Z,96000.53
2023-07-24T03:55:36.877Z,96021.16
2023-07-24T03:58:03.643Z,96043.19
2023-07-24T04:00:30.297Z,96059.00
2023-07-24T04:02:57.082Z,96055.44
2023-07-24T04:05:23.768Z,96033.44
2023-07-24T04:07:50.656Z,95964.03
2023-07-24T04:10:17.398Z,96076.53
2023-07-24T04:12:44.063Z,96043.44
2023-07-24T04:15:10.854Z,96020.06
2023-07-24T04:17:37.554Z,96027.41
2023-07-24T04:20:04.997Z,96102.66
2023-07-24T04:22:31.655Z,96084.00
2023-07-24T04:24:58.288Z,95966.22
2023-07-24T04:27:24.951Z,95984.66
2023-07-24T04:29:51.593Z,96032.91
2023-07-24T04:32:18.284Z,96092.81
2023-07-24T04:34:44.986Z,96117.19
2023-07-24T04:37:11.602Z,96092.66
2023-07-24T04:39:41.346Z,96048.53
2023-07-24T04:42:08.099Z,95894.66
2023-07-24T04:44:34.737Z,96001.56
2023-07-24T04:47:02.906Z,96067.09
2023-07-24T04:49:31.073Z,96070.16
2023-07-24T04:51:57.724Z,96008.47
2023-07-24T04:54:24.423Z,96079.75
2023-07-24T04:56:51.205Z,96038.56
2023-07-24T04:59:18.027Z,95999.56
2023-07-24T05:01:52.042Z,96049.03
2023-07-24T05:04:19.773Z,96068.91
2023-07-24T05:06:46.475Z,96096.09
2023-07-24T05:09:13.192Z,96067.75
2023-07-24T05:11:40.388Z,96047.84
2023-07-24T05:14:07.082Z,96080.16
2023-07-24T05:16:33.995Z,96035.91
2023-07-24T05:19:00.948Z,96111.44
2023-07-24T05:21:27.620Z,96069.44
2023-07-24T05:23:54.265Z,96127.25
2023-07-24T05:26:21.000Z,96109.66
2023-07-24T05:28:47.650Z,96104.72
2023-07-24T05:31:14.677Z,96053.53
2023-07-24T05:33:41.417Z,96059.81
2023-07-24T05:36:08.104Z,96027.41
2023-07-24T05:38:34.766Z,96094.00
2023-07-24T05:41:03.048Z,96040.25
2023-07-24T05:43:29.999Z,96072.59
2023-07-24T05:45:57.516Z,96132.25
2023-07-24T05:48:24.347Z,96136.19
2023-07-24T05:50:51.022Z,96012.84
2023-07-24T05:53:18.068Z,96125.50
2023-07-24T05:55:44.804Z,96083.44
2023-07-24T05:58:11.502Z,96012.88
2023-07-24T06:00:38.227Z,96084.81
2023-07-24T06:03:07.834Z,96089.56
2023-07-24T06:05:35.124Z,96117.28
2023-07-24T06:08:01.759Z,96054.78
2023-07-24T06:10:28.407Z,96115.50
2023-07-24T06:12:55.076Z,96036.06
2023-07-24T06:15:22.014Z,96091.31
2023-07-24T06:17:50.907Z,96016.03
2023-07-24T06:20:19.140Z,96043.34
2023-07-24T06:22:45.976Z,96004.00
2023-07-24T06:25:12.694Z,96032.50
2023-07-24T06:27:39.438Z,95960.22
2023-07-24T06:30:15.295Z,96061.84
2023-07-24T06:32:42.865Z,96076.19
2023-07-24T06:35:09.691Z,96108.66
2023-07-24T06:37:36.383Z,96048.66
2023-07-24T06:40:03.418Z,96057.91
2023-07-24T06:42:30.079Z,96030.22
2023-07-24T06:44:56.763Z,96034.59
2023-07-24T06:47:23.439Z,96048.06
2023-07-24T06:49:50.164Z,96064.47
2023-07-24T06:52:16.817Z,96057.09
2023-07-24T06:54:43.461Z,96021.16
2023-07-24T06:57:10.678Z,96052.06
2023-07-24T06:59:37.889Z,96036.78
2023-07-24T07:02:04.870Z,96045.16
2023-07-24T07:04:31.548Z,96019.91
2023-07-24T07:06:58.239Z,96034.25
2023-07-24T07:09:24.969Z,95985.06
2023-07-24T07:11:51.673Z,96021.81
2023-07-24T07:14:18.330Z,96042.94
2023-07-24T07:16:45.674Z,95977.00
2023-07-24T07:19:12.482Z,96009.38
2023-07-24T07:21:39.133Z,96017.72
2023-07-24T07:24:06.158Z,96017.63
2023-07-24T07:26:32.976Z,95983.63
2023-07-24T07:28:59.993Z,95930.50
2023-07-24T07:31:26.755Z,95947.03
2023-07-24T07:33:53.410Z,96014.75
2023-07-24T07:36:20.071Z,96043.78
2023-07-24T07:38:46.872Z,96066.88
2023-07-24T07:41:13.636Z,95948.56
2023-07-24T07:43:40.437Z,96037.56
2023-07-24T07:46:07.128Z,95917.34
2023-07-24T07:48:34.170Z,96050.53
2023-07-24T07:51:00.838Z,96045.97
2023-07-24T07:53:27.755Z,96028.00
2023-07-24T07:55:58.331Z,95990.78
2023-07-24T07:58:25.316Z,95788.84
2023-07-24T08:00:52.072Z,96044.03
2023-07-24T08:03:19.185Z,95961.25
2023-07-24T08:05:45.984Z,95998.50
2023-07-24T08:08:12.661Z,95992.47
2023-07-24T08:10:39.852Z,95954.03
2023-07-24T08:13:06.776Z,95960.19
2023-07-24T08:15:37.387Z,95968.22
2023-07-24T08:18:07.219Z,96005.13
2023-07-24T08:20:36.058Z,95947.38
2023-07-24T08:23:02.743Z,95964.53
2023-07-24T08:25:29.442Z,95966.56
2023-07-24T08:28:05.410Z,95974.91
2023-07-24T08:30:33.363Z,95985.03
2023-07-24T08:33:00.583Z,95955.50
2023-07-24T08:35:27.463Z,95945.28
2023-07-24T08:37:54.247Z,95965.66
2023-07-24T08:40:21.351Z,95966.16
2023-07-24T08:42:50.269Z,95921.41
2023-07-24T08:45:17.175Z,95967.31
2023-07-24T08:47:47.508Z,95992.31
2023-07-24T08:50:16.021Z,95766.00
2023-07-24T08:52:44.086Z,95911.94
2023-07-24T08:55:10.863Z,95933.75
2023-07-24T08:57:42.819Z,95938.63
2023-07-24T09:00:10.019Z,95964.09
2023-07-24T09:02:36.960Z,95863.41
2023-07-24T09:05:04.998Z,95809.56
2023-07-24T09:07:32.440Z,95881.69
2023-07-24T09:09:59.309Z,95932.66
2023-07-24T09:12:26.027Z,95919.53
2023-07-24T09:15:06.682Z,95867.59
2023-07-24T09:17:33.807Z,95907.47
2023-07-24T09:20:01.326Z,95924.66
2023-07-24T09:22:28.168Z,95929.81
2023-07-24T09:24:56.416Z,95869.75
2023-07-24T09:27:26.534Z,95892.03
2023-07-24T09:29:53.357Z,95853.78
2023-07-24T09:32:24.018Z,95702.38
2023-07-24T09:34:57.518Z,95847.78
2023-07-24T09:37:28.528Z,95809.34
2023-07-24T09:39:55.295Z,95843.59
2023-07-24T09:42:36.008Z,95873.28
2023-07-24T09:45:06.562Z,95912.69
2023-07-24T09:47:55.123Z,95835.59
2023-07-24T09:50:19.918Z,95842.59
2023-07-24T09:52:46.618Z,95767.53
2023-07-24T09:55:16.852Z,95855.66
2023-07-24T09:57:43.629Z,95818.81
2023-07-24T10:00:10.993Z,95840.22
2023-07-24T10:02:37.710Z,95797.97
2023-07-24T10:05:04.600Z,95836.63
2023-07-24T10:07:31.290Z,95886.41
2023-07-24T10:09:57.942Z,95644.84
2023-07-24T10:12:24.675Z,95787.44
2023-07-24T10:14:51.368Z,95805.44
2023-07-24T10:17:46.083Z,95817.16
2023-07-24T10:20:13.217Z,95867.56
2023-07-24T10:22:43.311Z,95663.53
2023-07-24T10:25:10.960Z,95875.75
2023-07-24T10:27:42.775Z,95790.84
2023-07-24T10:30:19.255Z,95842.81
2023-07-24T10:32:56.262Z,95830.97
2023-07-24T10:35:24.254Z,95819.38
2023-07-24T10:38:00.160Z,95861.44
2023-07-24T10:40:26.907Z,95784.69
2023-07-24T10:43:10.048Z,95815.03
2023-07-24T10:45:51.382Z,95872.72
2023-07-24T10:48:18.869Z,95804.38
2023-07-24T10:50:50.080Z,95832.22
2023-07-24T10:53:20.461Z,95765.41
2023-07-24T10:55:52.100Z,95854.50
2023-07-24T10:58:18.823Z,95873.78
2023-07-24T11:00:45.670Z,95817.44
2023-07-24T11:03:12.887Z,95805.09
2023-07-24T11:05:43.465Z,95830.69
2023-07-24T11:08:16.762Z,95644.09
2023-07-24T11:10:48.100Z,95834.16
2023-07-24T11:13:15.693Z,95816.44
2023-07-24T11:15:42.484Z,95769.22
2023-07-24T11:18:09.629Z,95725.81
2023-07-24T11:20:40.255Z,95767.28
2023-07-24T11:23:07.138Z,95707.28
2023-07-24T11:25:34.090Z,95699.72
2023-07-24T11:28:00.965Z,95767.13
2023-07-24T11:30:27.782Z,95705.72
2023-07-24T11:32:54.508Z,95705.41
2023-07-24T11:35:22.691Z,95661.88
2023-07-24T11:37:49.364Z,95697.41
2023-07-24T11:40:16.848Z,95596.44
2023-07-24T11:42:44.924Z,95662.38
2023-07-24T11:45:11.806Z,95670.25
2023-07-24T11:47:49.920Z,95585.66
2023-07-24T11:50:17.298Z,95679.75
2023-07-24T11:52:50.245Z,95707.03
2023-07-24T11:55:35.468Z,95653.00
2023-07-24T11:58:02.687Z,95592.22
2023-07-24T12:00:29.507Z,95664.25
2023-07-24T12:03:02.888Z,95632.56
2023-07-24T12:05:29.739Z,95569.78
2023-07-24T12:07:56.636Z,95666.72
2023-07-24T12:10:28.915Z,95650.56
2023-07-24T12:12:56.151Z,95610.25
2023-07-24T12:15:23.041Z,95597.53
2023-07-24T12:17:49.722Z,95614.19
2023-07-24T12:20:16.505Z,95650.41
2023-07-24T12:22:43.243Z,95615.06
2023-07-24T12:25:10.056Z,95510.63
2023-07-24T12:27:36.933Z,95539.00
2023-07-24T12:30:04.184Z,95531.09
2023-07-24T12:32:30.845Z,95617.66
2023-07-24T12:34:57.568Z,95573.75
2023-07-24T12:37:24.203Z,95610.50
2023-07-24T12:39:50.874Z,95587.44
2023-07-24T12:42:17.502Z,95630.31
2023-07-24T12:44:44.471Z,95602.84
2023-07-24T12:47:11.914Z,95539.56
2023-07-24T12:49:38.751Z,95519.31
2023-07-24T12:52:06.158Z,95566.25
2023-07-24T12:54:37.245Z,95634.00
2023-07-24T12:57:13.354Z,95613.31
2023-07-24T12:59:40.125Z,95442.84
2023-07-24T13:02:07.749Z,95593.22
2023-07-24T13:04:34.412Z,95586.41
2023-07-24T13:07:01.487Z,95485.50
2023-07-24T13:09:28.800Z,95602.94
2023-07-24T13:11:55.692Z,95569.91
2023-07-24T13:14:22.519Z,95571.47
2023-07-24T13:16:49.275Z,95604.69
2023-07-24T13:19:20.449Z,95520.53
2023-07-24T13:21:48.269Z,95531.25
2023-07-24T13:24:15.318Z,95560.78
2023-07-24T13:26:42.097Z,95459.13
2023-07-24T13:29:08.842Z,95527.03
2023-07-24T13:31:36.246Z,95551.19
2023-07-24T13:34:03.446Z,95560.47
2023-07-24T13:36:30.405Z,95519.41
2023-07-24T13:39:00.827Z,95581.31
2023-07-24T13:41:27.516Z,95547.31
2023-07-24T13:43:55.510Z,95461.50
2023-07-24T13:46:23.490Z,95539.75
2023-07-24T13:48:50.190Z,95464.66
2023-07-24T13:51:16.862Z,95510.44
2023-07-24T13:53:43.553Z,95507.72
2023-07-24T13:56:10.867Z,95515.78
2023-07-24T13:58:37.674Z,95509.00
2023-07-24T14:01:04.362Z,95471.91
2023-07-24T14:03:31.162Z,95522.75
2023-07-24T14:05:58.944Z,95469.09
2023-07-24T14:08:26.008Z,95408.19
2023-07-24T14:10:52.739Z,95471.63
2023-07-24T14:13:23.594Z,95435.34
2023-07-24T14:15:50.455Z,95354.91
2023-07-24T14:18:17.363Z,95372.06
2023-07-24T14:20:44.241Z,95415.56
2023-07-24T14:23:11.011Z,95432.94
2023-07-24T14:25:37.697Z,95448.25
2023-07-24T14:28:04.659Z,95402.78
2023-07-24T14:30:31.322Z,95437.38
2023-07-24T14:32:58.008Z,95415.56
2023-07-24T14:35:24.825Z,95401.53
2023-07-24T14:37:51.532Z,95436.59
2023-07-24T14:40:18.334Z,95398.72
2023-07-24T14:42:45.069Z,95341.66
2023-07-24T14:45:11.800Z,95439.13
2023-07-24T14:47:38.520Z,95419.59
2023-07-24T14:50:05.767Z,95408.69
2023-07-24T14:52:32.444Z,95352.22
2023-07-24T14:54:59.091Z,95376.69
2023-07-24T14:57:26.440Z,95364.41
2023-07-24T14:59:53.798Z,95351.28
2023-07-24T15:02:20.577Z,95375.44
2023-07-24T15:04:47.302Z,95262.88
2023-07-24T15:07:13.978Z,95366.28
2023-07-24T15:09:40.694Z,95385.22
2023-07-24T15:12:07.708Z,95337.88
2023-07-24T15:14:34.464Z,95374.78
2023-07-24T15:17:01.128Z,95144.31
2023-07-24T15:19:27.906Z,95318.44
2023-07-24T15:21:54.602Z,95361.16
2023-07-24T15:24:21.260Z,95388.91
2023-07-24T15:26:48.224Z,95336.97
2023-07-24T15:29:19.674Z,95258.72
2023-07-24T15:31:46.919Z,95337.81
2023-07-24T15:34:13.733Z,95384.38
2023-07-24T15:36:40.433Z,95354.22
2023-07-24T15:39:07.159Z,95286.94
2023-07-24T15:41:34.011Z,95383.38
2023-07-24T15:44:00.776Z,95341.00
2023-07-24T15:46:30.150Z,95342.75
2023-07-24T15:48:57.532Z,95287.94
2023-07-24T15:51:24.839Z,95344.00
2023-07-24T15:53:51.503Z,95323.22
2023-07-24T15:56:18.180Z,95291.78
2023-07-24T15:58:44.858Z,95358.44
2023-07-24T16:01:11.938Z,95311.38
2023-07-24T16:03:38.891Z,95274.16
2023-07-24T16:06:06.342Z,95292.00
2023-07-24T16:08:33.063Z,95230.16
2023-07-24T16:10:59.747Z,95308.69
2023-07-24T16:13:26.720Z,95319.03
2023-07-24T16:15:53.715Z,95119.88
2023-07-24T16:18:24.504Z,95310.59
2023-07-24T16:20:51.336Z,95346.28
2023-07-24T16:23:18.103Z,95364.22
